sensor_id;sensor_type;location;lat;lon;timestamp;pressure;altitude;pressure_sealevel;temperature;humidity
27304;BME280;14791;52.392;13.092;2023-01-31T00:00:27;100952.52;;;9.09;49.71
27304;BME280;14791;52.392;13.092;2023-01-31T00:02:55;100954.87;;;9.06;49.77
27304;BME280;14791;52.392;13.092;2023-01-31T00:05:25;100946.09;;;9.04;49.81
27304;BME280;14791;52.392;13.092;2023-01-31T00:07:54;100964.43;;;9.02;49.89
27304;BME280;14791;52.392;13.092;2023-01-31T00:10:23;100958.79;;;8.99;49.92
27304;BME280;14791;52.392;13.092;2023-01-31T00:12:52;100963.81;;;8.97;50.01
27304;BME280;14791;52.392;13.092;2023-01-31T00:15:21;100971.87;;;8.95;50.06
27304;BME280;14791;52.392;13.092;2023-01-31T00:17:50;100971.18;;;8.91;50.15
27304;BME280;14791;52.392;13.092;2023-01-31T00:20:18;100978.31;;;8.91;50.19
27304;BME280;14791;52.392;13.092;2023-01-31T00:22:47;100967.25;;;8.90;50.19
27304;BME280;14791;52.392;13.092;2023-01-31T00:25:16;100984.56;;;8.90;50.26
27304;BME280;14791;52.392;13.092;2023-01-31T00:27:45;100988.19;;;8.89;50.30
27304;BME280;14791;52.392;13.092;2023-01-31T00:30:14;100997.51;;;8.89;50.37
27304;BME280;14791;52.392;13.092;2023-01-31T00:32:44;100994.84;;;8.89;50.43
27304;BME280;14791;52.392;13.092;2023-01-31T00:35:13;101006.73;;;8.90;50.46
27304;BME280;14791;52.392;13.092;2023-01-31T00:37:43;101008.38;;;8.93;50.41
27304;BME280;14791;52.392;13.092;2023-01-31T00:40:14;100996.80;;;8.94;50.33
27304;BME280;14791;52.392;13.092;2023-01-31T00:42:44;101001.11;;;8.97;50.38
27304;BME280;14791;52.392;13.092;2023-01-31T00:45:14;101012.63;;;8.97;50.35
27304;BME280;14791;52.392;13.092;2023-01-31T00:47:43;101016.08;;;8.99;50.28
27304;BME280;14791;52.392;13.092;2023-01-31T00:50:13;101025.33;;;9.01;50.32
27304;BME280;14791;52.392;13.092;2023-01-31T00:52:43;101030.19;;;9.01;50.27
27304;BME280;14791;52.392;13.092;2023-01-31T00:55:11;101034.56;;;9.02;50.20
27304;BME280;14791;52.392;13.092;2023-01-31T00:57:41;101035.89;;;9.02;50.32
27304;BME280;14791;52.392;13.092;2023-01-31T01:00:10;101037.64;;;9.03;50.31
27304;BME280;14791;52.392;13.092;2023-01-31T01:02:40;101035.77;;;9.05;50.25
27304;BME280;14791;52.392;13.092;2023-01-31T01:05:09;101041.47;;;9.06;50.23
27304;BME280;14791;52.392;13.092;2023-01-31T01:07:38;101039.77;;;9.05;50.18
27304;BME280;14791;52.392;13.092;2023-01-31T01:10:08;101047.75;;;9.05;50.26
27304;BME280;14791;52.392;13.092;2023-01-31T01:12:38;101041.09;;;9.05;50.30
27304;BME280;14791;52.392;13.092;2023-01-31T01:15:07;101050.32;;;9.07;50.36
27304;BME280;14791;52.392;13.092;2023-01-31T01:17:36;101046.33;;;9.07;50.34
27304;BME280;14791;52.392;13.092;2023-01-31T01:20:06;101042.27;;;9.08;50.31
27304;BME280;14791;52.392;13.092;2023-01-31T01:22:37;101051.52;;;9.10;50.28
27304;BME280;14791;52.392;13.092;2023-01-31T01:25:07;101041.23;;;9.11;50.28
27304;BME280;14791;52.392;13.092;2023-01-31T01:27:37;101057.61;;;9.12;50.31
27304;BME280;14791;52.392;13.092;2023-01-31T01:30:07;101046.88;;;9.13;50.36
27304;BME280;14791;52.392;13.092;2023-01-31T01:32:36;101051.67;;;9.15;50.37
27304;BME280;14791;52.392;13.092;2023-01-31T01:35:06;101060.45;;;9.18;50.31
27304;BME280;14791;52.392;13.092;2023-01-31T01:37:36;101054.58;;;9.20;50.34
27304;BME280;14791;52.392;13.092;2023-01-31T01:40:05;101065.62;;;9.21;50.19
27304;BME280;14791;52.392;13.092;2023-01-31T01:42:36;101060.13;;;9.24;50.19
27304;BME280;14791;52.392;13.092;2023-01-31T01:45:11;101069.86;;;9.25;50.17
27304;BME280;14791;52.392;13.092;2023-01-31T01:47:45;101069.77;;;9.26;50.04
27304;BME280;14791;52.392;13.092;2023-01-31T01:53:11;101077.77;;;9.26;50.18
27304;BME280;14791;52.392;13.092;2023-01-31T01:55:43;101078.23;;;9.26;50.11
27304;BME280;14791;52.392;13.092;2023-01-31T01:58:17;101088.59;;;9.23;50.09
27304;BME280;14791;52.392;13.092;2023-01-31T02:00:48;101088.66;;;9.22;50.05
27304;BME280;14791;52.392;13.092;2023-01-31T02:03:18;101089.67;;;9.19;49.96
27304;BME280;14791;52.392;13.092;2023-01-31T02:05:55;101088.98;;;9.15;49.89
27304;BME280;14791;52.392;13.092;2023-01-31T02:08:27;101105.89;;;9.14;49.91
27304;BME280;14791;52.392;13.092;2023-01-31T02:11:17;101108.81;;;9.10;49.99
27304;BME280;14791;52.392;13.092;2023-01-31T02:13:46;101109.90;;;9.06;49.97
27304;BME280;14791;52.392;13.092;2023-01-31T02:16:17;101111.04;;;9.00;50.02
27304;BME280;14791;52.392;13.092;2023-01-31T02:18:47;101111.20;;;8.97;50.11
27304;BME280;14791;52.392;13.092;2023-01-31T02:22:28;101112.69;;;8.94;50.10
27304;BME280;14791;52.392;13.092;2023-01-31T02:27:28;101118.08;;;8.84;50.22
27304;BME280;14791;52.392;13.092;2023-01-31T02:33:22;101142.77;;;8.68;50.40
27304;BME280;14791;52.392;13.092;2023-01-31T02:36:02;101144.94;;;8.60;50.50
27304;BME280;14791;52.392;13.092;2023-01-31T02:38:56;101147.97;;;8.53;50.62
27304;BME280;14791;52.392;13.092;2023-01-31T02:44:28;101147.38;;;8.46;50.77
27304;BME280;14791;52.392;13.092;2023-01-31T02:47:24;101143.54;;;8.43;50.79
27304;BME280;14791;52.392;13.092;2023-01-31T02:52:51;101146.97;;;8.35;50.87
27304;BME280;14791;52.392;13.092;2023-01-31T02:58:15;101152.97;;;8.29;50.95
27304;BME280;14791;52.392;13.092;2023-01-31T03:00:46;101156.31;;;8.24;50.98
27304;BME280;14791;52.392;13.092;2023-01-31T03:03:28;101160.31;;;8.24;50.97
27304;BME280;14791;52.392;13.092;2023-01-31T03:09:09;101165.16;;;8.25;51.00
27304;BME280;14791;52.392;13.092;2023-01-31T03:14:12;101164.23;;;8.16;51.13
27304;BME280;14791;52.392;13.092;2023-01-31T03:19:47;101165.51;;;8.17;51.12
27304;BME280;14791;52.392;13.092;2023-01-31T03:22:19;101158.20;;;8.12;51.20
27304;BME280;14791;52.392;13.092;2023-01-31T03:24:50;101169.37;;;8.10;51.21
27304;BME280;14791;52.392;13.092;2023-01-31T03:27:20;101164.05;;;8.10;51.21
27304;BME280;14791;52.392;13.092;2023-01-31T03:29:55;101169.37;;;8.10;51.21
27304;BME280;14791;52.392;13.092;2023-01-31T03:32:26;101168.05;;;8.10;51.24
27304;BME280;14791;52.392;13.092;2023-01-31T03:34:56;101174.70;;;8.10;51.27
27304;BME280;14791;52.392;13.092;2023-01-31T03:37:49;101172.95;;;8.09;51.27
27304;BME280;14791;52.392;13.092;2023-01-31T03:40:30;101190.25;;;8.09;51.29
27304;BME280;14791;52.392;13.092;2023-01-31T03:43:24;101179.89;;;8.03;51.39
27304;BME280;14791;52.392;13.092;2023-01-31T03:46:06;101182.70;;;8.00;51.49
27304;BME280;14791;52.392;13.092;2023-01-31T03:48:34;101172.64;;;7.96;51.54
27304;BME280;14791;52.392;13.092;2023-01-31T03:51:05;101179.76;;;7.96;51.58
27304;BME280;14791;52.392;13.092;2023-01-31T03:53:37;101180.56;;;7.98;51.58
27304;BME280;14791;52.392;13.092;2023-01-31T03:56:12;101184.94;;;7.99;51.60
27304;BME280;14791;52.392;13.092;2023-01-31T03:58:41;101193.33;;;8.00;51.62
27304;BME280;14791;52.392;13.092;2023-01-31T04:01:12;101201.70;;;8.01;51.68
27304;BME280;14791;52.392;13.092;2023-01-31T04:03:45;101198.98;;;8.02;51.68
27304;BME280;14791;52.392;13.092;2023-01-31T04:06:15;101206.87;;;8.04;51.71
27304;BME280;14791;52.392;13.092;2023-01-31T04:08:44;101213.95;;;8.05;51.80
27304;BME280;14791;52.392;13.092;2023-01-31T04:11:18;101210.20;;;8.09;51.86
27304;BME280;14791;52.392;13.092;2023-01-31T04:13:47;101201.69;;;8.11;51.90
27304;BME280;14791;52.392;13.092;2023-01-31T04:16:16;101210.80;;;8.16;51.96
27304;BME280;14791;52.392;13.092;2023-01-31T04:18:45;101219.00;;;8.21;52.01
27304;BME280;14791;52.392;13.092;2023-01-31T04:21:14;101204.22;;;8.24;52.01
27304;BME280;14791;52.392;13.092;2023-01-31T04:23:43;101207.53;;;8.29;51.98
27304;BME280;14791;52.392;13.092;2023-01-31T04:26:12;101212.23;;;8.33;51.95
27304;BME280;14791;52.392;13.092;2023-01-31T04:28:41;101223.10;;;8.39;51.92
27304;BME280;14791;52.392;13.092;2023-01-31T04:31:09;101225.17;;;8.42;51.86
27304;BME280;14791;52.392;13.092;2023-01-31T04:33:38;101215.66;;;8.47;51.85
27304;BME280;14791;52.392;13.092;2023-01-31T04:36:08;101223.58;;;8.48;51.82
27304;BME280;14791;52.392;13.092;2023-01-31T04:38:37;101227.52;;;8.50;51.86
27304;BME280;14791;52.392;13.092;2023-01-31T04:41:06;101222.91;;;8.54;51.88
27304;BME280;14791;52.392;13.092;2023-01-31T04:43:35;101227.70;;;8.56;51.84
27304;BME280;14791;52.392;13.092;2023-01-31T04:46:04;101230.21;;;8.59;51.83
27304;BME280;14791;52.392;13.092;2023-01-31T04:48:33;101227.49;;;8.60;51.80
27304;BME280;14791;52.392;13.092;2023-01-31T04:51:02;101244.33;;;8.61;51.82
27304;BME280;14791;52.392;13.092;2023-01-31T04:53:31;101255.30;;;8.63;51.87
27304;BME280;14791;52.392;13.092;2023-01-31T04:56:00;101234.86;;;8.64;51.90
27304;BME280;14791;52.392;13.092;2023-01-31T04:58:30;101239.17;;;8.66;51.93
27304;BME280;14791;52.392;13.092;2023-01-31T05:00:59;101237.78;;;8.68;51.93
27304;BME280;14791;52.392;13.092;2023-01-31T05:03:28;101236.84;;;8.69;51.95
27304;BME280;14791;52.392;13.092;2023-01-31T05:05:56;101226.13;;;8.70;51.95
27304;BME280;14791;52.392;13.092;2023-01-31T05:08:25;101236.24;;;8.72;51.93
27304;BME280;14791;52.392;13.092;2023-01-31T05:11:02;101249.95;;;8.73;51.90
27304;BME280;14791;52.392;13.092;2023-01-31T05:13:33;101237.52;;;8.74;51.90
27304;BME280;14791;52.392;13.092;2023-01-31T05:16:09;101236.63;;;8.73;51.92
27304;BME280;14791;52.392;13.092;2023-01-31T05:18:38;101234.91;;;8.72;51.96
27304;BME280;14791;52.392;13.092;2023-01-31T05:21:07;101232.25;;;8.72;51.94
27304;BME280;14791;52.392;13.092;2023-01-31T05:23:36;101225.53;;;8.74;51.92
27304;BME280;14791;52.392;13.092;2023-01-31T05:26:05;101241.95;;;8.73;51.89
27304;BME280;14791;52.392;13.092;2023-01-31T05:28:34;101244.50;;;8.77;51.94
27304;BME280;14791;52.392;13.092;2023-01-31T05:31:07;101249.35;;;8.77;51.94
27304;BME280;14791;52.392;13.092;2023-01-31T05:33:36;101243.02;;;8.80;51.96
27304;BME280;14791;52.392;13.092;2023-01-31T05:36:05;101249.53;;;8.83;51.96
27304;BME280;14791;52.392;13.092;2023-01-31T05:38:34;101254.86;;;8.83;51.91
27304;BME280;14791;52.392;13.092;2023-01-31T05:41:03;101252.93;;;8.86;51.86
27304;BME280;14791;52.392;13.092;2023-01-31T05:43:32;101246.27;;;8.86;51.86
27304;BME280;14791;52.392;13.092;2023-01-31T05:46:01;101255.12;;;8.87;51.84
27304;BME280;14791;52.392;13.092;2023-01-31T05:48:30;101251.51;;;8.88;51.85
27304;BME280;14791;52.392;13.092;2023-01-31T05:50:59;101257.37;;;8.86;51.88
27304;BME280;14791;52.392;13.092;2023-01-31T05:53:28;101261.78;;;8.87;51.88
27304;BME280;14791;52.392;13.092;2023-01-31T05:55:56;101258.16;;;8.88;51.88
27304;BME280;14791;52.392;13.092;2023-01-31T05:58:25;101268.82;;;8.88;51.91
27304;BME280;14791;52.392;13.092;2023-01-31T06:00:55;101264.83;;;8.88;51.93
27304;BME280;14791;52.392;13.092;2023-01-31T06:03:24;101265.24;;;8.89;51.99
27304;BME280;14791;52.392;13.092;2023-01-31T06:05:53;101270.95;;;8.90;51.99
27304;BME280;14791;52.392;13.092;2023-01-31T06:08:22;101274.03;;;8.91;52.01
27304;BME280;14791;52.392;13.092;2023-01-31T06:10:51;101275.27;;;8.92;52.07
27304;BME280;14791;52.392;13.092;2023-01-31T06:13:20;101275.59;;;8.95;52.10
27304;BME280;14791;52.392;13.092;2023-01-31T06:15:49;101272.81;;;8.98;52.08
27304;BME280;14791;52.392;13.092;2023-01-31T06:18:18;101287.31;;;9.01;52.08
27304;BME280;14791;52.392;13.092;2023-01-31T06:20:46;101284.98;;;9.04;52.08
27304;BME280;14791;52.392;13.092;2023-01-31T06:23:15;101281.30;;;9.06;52.07
27304;BME280;14791;52.392;13.092;2023-01-31T06:25:51;101289.23;;;9.08;52.07
27304;BME280;14791;52.392;13.092;2023-01-31T06:28:15;101294.09;;;9.08;52.08
27304;BME280;14791;52.392;13.092;2023-01-31T06:30:45;101295.10;;;9.06;52.07
27304;BME280;14791;52.392;13.092;2023-01-31T06:33:14;101295.84;;;8.99;52.15
27304;BME280;14791;52.392;13.092;2023-01-31T06:35:43;101297.00;;;8.93;52.35
27304;BME280;14791;52.392;13.092;2023-01-31T06:38:12;101302.13;;;8.88;52.47
27304;BME280;14791;52.392;13.092;2023-01-31T06:40:42;101290.91;;;8.81;52.67
27304;BME280;14791;52.392;13.092;2023-01-31T06:43:11;101292.45;;;8.77;52.75
27304;BME280;14791;52.392;13.092;2023-01-31T06:45:42;101292.18;;;8.72;52.88
27304;BME280;14791;52.392;13.092;2023-01-31T06:48:15;101287.00;;;8.69;52.93
27304;BME280;14791;52.392;13.092;2023-01-31T06:50:46;101293.33;;;8.67;53.09
27304;BME280;14791;52.392;13.092;2023-01-31T06:53:15;101295.58;;;8.66;53.21
27304;BME280;14791;52.392;13.092;2023-01-31T06:55:44;101286.34;;;8.64;53.31
27304;BME280;14791;52.392;13.092;2023-01-31T06:58:13;101289.01;;;8.64;53.40
27304;BME280;14791;52.392;13.092;2023-01-31T07:00:42;101295.67;;;8.64;53.48
27304;BME280;14791;52.392;13.092;2023-01-31T07:03:11;101304.04;;;8.65;53.54
27304;BME280;14791;52.392;13.092;2023-01-31T07:05:40;101296.85;;;8.67;53.56
27304;BME280;14791;52.392;13.092;2023-01-31T07:08:09;101300.31;;;8.69;53.65
27304;BME280;14791;52.392;13.092;2023-01-31T07:10:38;101288.19;;;8.72;53.69
27304;BME280;14791;52.392;13.092;2023-01-31T07:13:07;101291.11;;;8.77;53.67
27304;BME280;14791;52.392;13.092;2023-01-31T07:15:36;101284.69;;;8.81;53.66
27304;BME280;14791;52.392;13.092;2023-01-31T07:18:04;101292.80;;;8.88;53.61
27304;BME280;14791;52.392;13.092;2023-01-31T07:20:33;101303.34;;;8.91;53.58
27304;BME280;14791;52.392;13.092;2023-01-31T07:23:02;101295.20;;;8.94;53.55
27304;BME280;14791;52.392;13.092;2023-01-31T07:25:31;101294.13;;;8.98;53.52
27304;BME280;14791;52.392;13.092;2023-01-31T07:28:01;101301.02;;;9.02;53.53
27304;BME280;14791;52.392;13.092;2023-01-31T07:30:31;101293.45;;;9.03;53.52
27304;BME280;14791;52.392;13.092;2023-01-31T07:33:00;101289.83;;;9.04;53.53
27304;BME280;14791;52.392;13.092;2023-01-31T07:35:29;101284.35;;;9.07;53.54
27304;BME280;14791;52.392;13.092;2023-01-31T07:37:58;101289.56;;;9.10;53.52
27304;BME280;14791;52.392;13.092;2023-01-31T07:40:27;101285.35;;;9.15;53.48
27304;BME280;14791;52.392;13.092;2023-01-31T07:42:58;101277.26;;;9.16;53.48
27304;BME280;14791;52.392;13.092;2023-01-31T07:45:27;101274.92;;;9.19;53.52
27304;BME280;14791;52.392;13.092;2023-01-31T07:47:59;101276.92;;;9.24;53.53
27304;BME280;14791;52.392;13.092;2023-01-31T07:50:28;101282.96;;;9.28;53.50
27304;BME280;14791;52.392;13.092;2023-01-31T07:52:58;101272.14;;;9.31;53.50
27304;BME280;14791;52.392;13.092;2023-01-31T07:55:27;101287.06;;;9.35;53.41
27304;BME280;14791;52.392;13.092;2023-01-31T07:57:56;101279.06;;;9.35;53.32
27304;BME280;14791;52.392;13.092;2023-01-31T08:00:25;101284.45;;;9.33;53.30
27304;BME280;14791;52.392;13.092;2023-01-31T08:03:24;101276.67;;;9.29;53.42
27304;BME280;14791;52.392;13.092;2023-01-31T08:06:10;101263.81;;;9.20;53.58
27304;BME280;14791;52.392;13.092;2023-01-31T08:08:40;101275.82;;;9.09;53.76
27304;BME280;14791;52.392;13.092;2023-01-31T08:11:10;101259.60;;;9.05;53.93
27304;BME280;14791;52.392;13.092;2023-01-31T08:13:39;101263.66;;;9.04;54.09
27304;BME280;14791;52.392;13.092;2023-01-31T08:16:09;101255.66;;;9.04;54.09
27304;BME280;14791;52.392;13.092;2023-01-31T08:18:38;101257.47;;;9.03;54.14
27304;BME280;14791;52.392;13.092;2023-01-31T08:21:09;101253.95;;;9.03;54.17
27304;BME280;14791;52.392;13.092;2023-01-31T08:23:39;101266.86;;;9.02;54.16
27304;BME280;14791;52.392;13.092;2023-01-31T08:26:14;101250.48;;;9.01;54.20
27304;BME280;14791;52.392;13.092;2023-01-31T08:28:44;101244.27;;;9.00;54.28
27304;BME280;14791;52.392;13.092;2023-01-31T08:31:17;101249.16;;;9.01;54.35
27304;BME280;14791;52.392;13.092;2023-01-31T08:33:46;101242.81;;;9.03;54.37
27304;BME280;14791;52.392;13.092;2023-01-31T08:36:18;101243.61;;;9.05;54.39
27304;BME280;14791;52.392;13.092;2023-01-31T08:38:50;101249.17;;;9.09;54.33
27304;BME280;14791;52.392;13.092;2023-01-31T08:41:21;101247.24;;;9.13;54.39
27304;BME280;14791;52.392;13.092;2023-01-31T08:43:50;101245.69;;;9.18;54.30
27304;BME280;14791;52.392;13.092;2023-01-31T08:46:19;101235.34;;;9.20;54.27
27304;BME280;14791;52.392;13.092;2023-01-31T08:48:49;101250.17;;;9.26;54.20
27304;BME280;14791;52.392;13.092;2023-01-31T08:51:18;101253.57;;;9.29;54.15
27304;BME280;14791;52.392;13.092;2023-01-31T08:53:47;101238.27;;;9.33;54.10
27304;BME280;14791;52.392;13.092;2023-01-31T08:56:16;101241.67;;;9.36;54.10
27304;BME280;14791;52.392;13.092;2023-01-31T08:58:46;101240.50;;;9.42;54.04
27304;BME280;14791;52.392;13.092;2023-01-31T09:01:17;101230.95;;;9.47;53.92
27304;BME280;14791;52.392;13.092;2023-01-31T09:03:47;101232.12;;;9.50;53.87
27304;BME280;14791;52.392;13.092;2023-01-31T09:06:19;101223.52;;;9.53;53.85
27304;BME280;14791;52.392;13.092;2023-01-31T09:08:48;101221.06;;;9.57;53.79
27304;BME280;14791;52.392;13.092;2023-01-31T09:11:17;101216.45;;;9.61;53.67
27304;BME280;14791;52.392;13.092;2023-01-31T09:13:47;101218.96;;;9.64;53.65
27304;BME280;14791;52.392;13.092;2023-01-31T09:16:18;101213.40;;;9.69;53.60
27304;BME280;14791;52.392;13.092;2023-01-31T09:18:48;101214.56;;;9.72;53.58
27304;BME280;14791;52.392;13.092;2023-01-31T09:21:19;101205.89;;;9.77;53.54
27304;BME280;14791;52.392;13.092;2023-01-31T09:23:52;101203.06;;;9.80;53.48
27304;BME280;14791;52.392;13.092;2023-01-31T09:26:19;101203.75;;;9.84;53.27
27304;BME280;14791;52.392;13.092;2023-01-31T09:28:47;101201.02;;;9.85;53.29
27304;BME280;14791;52.392;13.092;2023-01-31T09:31:19;101201.80;;;9.87;53.22
27304;BME280;14791;52.392;13.092;2023-01-31T09:33:48;101197.63;;;9.90;53.23
27304;BME280;14791;52.392;13.092;2023-01-31T09:36:19;101199.21;;;9.94;53.10
27304;BME280;14791;52.392;13.092;2023-01-31T09:38:53;101192.92;;;9.95;53.09
27304;BME280;14791;52.392;13.092;2023-01-31T09:41:32;101198.50;;;9.99;53.10
27304;BME280;14791;52.392;13.092;2023-01-31T09:44:03;101200.20;;;10.00;53.01
27304;BME280;14791;52.392;13.092;2023-01-31T09:46:38;101192.98;;;10.03;52.98
27304;BME280;14791;52.392;13.092;2023-01-31T09:49:12;101191.52;;;10.06;52.87
27304;BME280;14791;52.392;13.092;2023-01-31T09:51:39;101199.42;;;10.07;52.86
27304;BME280;14791;52.392;13.092;2023-01-31T09:54:14;101186.94;;;10.08;52.84
27304;BME280;14791;52.392;13.092;2023-01-31T09:56:44;101197.00;;;10.11;52.76
27304;BME280;14791;52.392;13.092;2023-01-31T09:59:31;101186.15;;;10.14;52.68
27304;BME280;14791;52.392;13.092;2023-01-31T10:05:16;101187.00;;;10.15;52.63
27304;BME280;14791;52.392;13.092;2023-01-31T10:08:03;101176.67;;;10.09;52.69
27304;BME280;14791;52.392;13.092;2023-01-31T10:10:45;101169.69;;;10.06;52.76
27304;BME280;14791;52.392;13.092;2023-01-31T10:13:23;101171.16;;;10.03;52.79
27304;BME280;14791;52.392;13.092;2023-01-31T10:15:55;101171.16;;;10.03;52.79
27304;BME280;14791;52.392;13.092;2023-01-31T10:18:30;101169.07;;;10.01;52.85
27304;BME280;14791;52.392;13.092;2023-01-31T10:21:14;101150.45;;;9.99;52.81
27304;BME280;14791;52.392;13.092;2023-01-31T10:24:01;101158.77;;;9.93;52.79
27304;BME280;14791;52.392;13.092;2023-01-31T10:26:28;101145.53;;;9.83;52.97
27304;BME280;14791;52.392;13.092;2023-01-31T10:29:00;101141.45;;;9.76;53.15
27304;BME280;14791;52.392;13.092;2023-01-31T10:31:51;101135.13;;;9.70;53.36
27304;BME280;14791;52.392;13.092;2023-01-31T10:39:45;101127.97;;;9.62;53.98
27304;BME280;14791;52.392;13.092;2023-01-31T10:47:49;101114.78;;;9.76;54.06
27304;BME280;14791;52.392;13.092;2023-01-31T10:58:50;101092.37;;;9.96;53.96
27304;BME280;14791;52.392;13.092;2023-01-31T11:01:20;101078.94;;;10.06;53.94
27304;BME280;14791;52.392;13.092;2023-01-31T11:03:53;101083.61;;;10.18;53.80
27304;BME280;14791;52.392;13.092;2023-01-31T11:06:23;101075.81;;;10.31;53.66
27304;BME280;14791;52.392;13.092;2023-01-31T11:09:03;101063.30;;;10.40;53.56
27304;BME280;14791;52.392;13.092;2023-01-31T11:11:28;101057.06;;;10.49;53.35
27304;BME280;14791;52.392;13.092;2023-01-31T11:14:03;101053.25;;;10.53;53.14
27304;BME280;14791;52.392;13.092;2023-01-31T11:16:35;101056.22;;;10.55;52.98
27304;BME280;14791;52.392;13.092;2023-01-31T11:19:22;101055.00;;;10.54;53.03
27304;BME280;14791;52.392;13.092;2023-01-31T11:21:47;101030.66;;;10.51;53.01
27304;BME280;14791;52.392;13.092;2023-01-31T11:24:22;101024.87;;;10.43;53.19
27304;BME280;14791;52.392;13.092;2023-01-31T11:29:37;101007.17;;;10.33;53.39
27304;BME280;14791;52.392;13.092;2023-01-31T11:32:04;101009.24;;;10.28;53.49
27304;BME280;14791;52.392;13.092;2023-01-31T11:34:33;100999.09;;;10.26;53.72
27304;BME280;14791;52.392;13.092;2023-01-31T11:37:12;100994.71;;;10.25;53.79
27304;BME280;14791;52.392;13.092;2023-01-31T11:39:36;100993.27;;;10.27;53.81
27304;BME280;14791;52.392;13.092;2023-01-31T11:42:12;100992.75;;;10.29;53.72
27304;BME280;14791;52.392;13.092;2023-01-31T11:45:00;100969.57;;;10.29;53.65
27304;BME280;14791;52.392;13.092;2023-01-31T11:50:04;100956.63;;;10.30;53.51
27304;BME280;14791;52.392;13.092;2023-01-31T11:52:34;100954.81;;;10.31;53.51
27304;BME280;14791;52.392;13.092;2023-01-31T11:55:05;100945.28;;;10.34;53.44
27304;BME280;14791;52.392;13.092;2023-01-31T11:57:36;100940.16;;;10.38;53.35
27304;BME280;14791;52.392;13.092;2023-01-31T12:00:24;100928.44;;;10.40;53.26
27304;BME280;14791;52.392;13.092;2023-01-31T12:03:05;100929.14;;;10.44;53.22
27304;BME280;14791;52.392;13.092;2023-01-31T12:06:01;100912.83;;;10.41;53.23
27304;BME280;14791;52.392;13.092;2023-01-31T12:08:36;100912.98;;;10.38;53.41
27304;BME280;14791;52.392;13.092;2023-01-31T12:11:26;100912.79;;;10.34;53.45
27304;BME280;14791;52.392;13.092;2023-01-31T12:13:59;100899.16;;;10.23;53.56
27304;BME280;14791;52.392;13.092;2023-01-31T12:16:28;100896.64;;;10.13;53.66
27304;BME280;14791;52.392;13.092;2023-01-31T12:27:41;100870.25;;;9.84;54.40
27304;BME280;14791;52.392;13.092;2023-01-31T12:30:30;100870.44;;;9.80;54.58
27304;BME280;14791;52.392;13.092;2023-01-31T12:38:26;100855.79;;;9.72;54.83
27304;BME280;14791;52.392;13.092;2023-01-31T12:49:12;100833.26;;;9.62;55.55
27304;BME280;14791;52.392;13.092;2023-01-31T12:52:13;100829.27;;;9.62;55.42
27304;BME280;14791;52.392;13.092;2023-01-31T12:54:45;100832.11;;;9.58;55.47
27304;BME280;14791;52.392;13.092;2023-01-31T12:57:22;100827.41;;;9.55;55.59
27304;BME280;14791;52.392;13.092;2023-01-31T13:02:38;100810.73;;;9.51;55.75
27304;BME280;14791;52.392;13.092;2023-01-31T13:08:34;100794.81;;;9.50;55.74
27304;BME280;14791;52.392;13.092;2023-01-31T13:10:47;100803.47;;;9.46;55.91
27304;BME280;14791;52.392;13.092;2023-01-31T13:13:32;100800.39;;;9.45;56.00
27304;BME280;14791;52.392;13.092;2023-01-31T13:18:51;100804.95;;;9.43;56.21
27304;BME280;14791;52.392;13.092;2023-01-31T13:21:23;100802.09;;;9.39;56.25
27304;BME280;14791;52.392;13.092;2023-01-31T13:23:59;100793.31;;;9.37;56.47
27304;BME280;14791;52.392;13.092;2023-01-31T13:26:34;100799.57;;;9.36;56.81
27304;BME280;14791;52.392;13.092;2023-01-31T13:29:21;100793.49;;;9.34;56.96
27304;BME280;14791;52.392;13.092;2023-01-31T13:31:46;100786.53;;;9.31;57.11
27304;BME280;14791;52.392;13.092;2023-01-31T13:34:25;100788.71;;;9.32;57.23
27304;BME280;14791;52.392;13.092;2023-01-31T13:36:57;100791.53;;;9.29;57.31
27304;BME280;14791;52.392;13.092;2023-01-31T13:42:17;100778.38;;;9.26;57.63
27304;BME280;14791;52.392;13.092;2023-01-31T13:44:43;100770.56;;;9.23;57.76
27304;BME280;14791;52.392;13.092;2023-01-31T13:47:28;100775.41;;;9.23;57.91
27304;BME280;14791;52.392;13.092;2023-01-31T13:50:00;100782.78;;;9.27;58.06
27304;BME280;14791;52.392;13.092;2023-01-31T13:52:50;100776.67;;;9.25;58.14
27304;BME280;14791;52.392;13.092;2023-01-31T13:55:49;100784.27;;;9.24;58.21
27304;BME280;14791;52.392;13.092;2023-01-31T13:57:45;100770.56;;;9.23;58.25
27304;BME280;14791;52.392;13.092;2023-01-31T14:03:11;100767.59;;;9.20;58.31
27304;BME280;14791;52.392;13.092;2023-01-31T14:08:37;100766.44;;;9.17;58.41
27304;BME280;14791;52.392;13.092;2023-01-31T14:13:49;100771.06;;;9.13;58.46
27304;BME280;14791;52.392;13.092;2023-01-31T14:16:37;100762.39;;;9.10;58.53
27304;BME280;14791;52.392;13.092;2023-01-31T14:21:55;100760.59;;;9.10;58.67
27304;BME280;14791;52.392;13.092;2023-01-31T14:27:19;100756.59;;;9.10;58.69
27304;BME280;14791;52.392;13.092;2023-01-31T14:29:54;100757.14;;;9.08;58.71
27304;BME280;14791;52.392;13.092;2023-01-31T14:57:57;100730.19;;;9.06;59.20
27304;BME280;14791;52.392;13.092;2023-01-31T15:00:36;100733.34;;;9.05;59.32
27304;BME280;14791;52.392;13.092;2023-01-31T15:03:14;100730.42;;;9.10;59.25
27304;BME280;14791;52.392;13.092;2023-01-31T15:05:47;100731.09;;;9.13;59.25
27304;BME280;14791;52.392;13.092;2023-01-31T15:13:46;100722.11;;;9.23;59.28
27304;BME280;14791;52.392;13.092;2023-01-31T15:16:32;100730.03;;;9.25;59.26
27304;BME280;14791;52.392;13.092;2023-01-31T15:19:19;100723.11;;;9.29;59.26
27304;BME280;14791;52.392;13.092;2023-01-31T15:21:58;100717.30;;;9.30;59.24
27304;BME280;14791;52.392;13.092;2023-01-31T15:24:44;100722.55;;;9.31;59.28
27304;BME280;14791;52.392;13.092;2023-01-31T15:27:31;100706.45;;;9.33;59.26